Time;durP1;ratioP1;P1;durP2;ratioP2;P2;SDS_P1;SDS_P2;PMS_P1;PMS_P2;Temp;Humidity;BMP_temperature;BMP_pressure;BME280_temperature;BME280_humidity;BME280_pressure;Samples;Min_cycle;Max_cycle;Signal;HPM_P1;HPM_P2
2023/01/17 00:00:27;;;;;;;;;;;5.10;99.90;;;;;;2614619;51;19995;-64
2023/01/17 00:02:59;;;;;;;;;;;5.00;99.90;;;;;;2618340;47;19950;-65
2023/01/17 00:10:57;;;;;;;;;;;5.10;99.90;;;;;;2613127;54;19969;-66
2023/01/17 00:13:26;;;;;;;;;;;5.10;99.90;;;;;;2615200;31;20481;-65
2023/01/17 00:15:56;;;;;;;;;;;5.10;99.90;;;;;;2615541;47;20460;-65
2023/01/17 00:18:28;;;;;;;;;;;5.00;99.90;;;;;;2614423;54;20038;-65
2023/01/17 00:26:24;;;;;;;;;;;5.00;99.90;;;;;;2615221;47;19962;-64
2023/01/17 01:35:32;;;;;;;;;;;4.60;99.90;;;;;;2617882;47;20543;-66
2023/01/17 01:38:04;;;;;;;;;;;4.60;99.90;;;;;;2617690;54;19954;-66
2023/01/17 01:40:33;;;;;;;;;;;4.50;99.90;;;;;;2614240;54;19968;-67
2023/01/17 01:43:04;;;;;;;;;;;4.50;99.90;;;;;;2615410;54;19951;-66
2023/01/17 01:45:34;;;;;;;;;;;4.40;99.90;;;;;;2614256;47;20014;-66
2023/01/17 01:48:05;;;;;;;;;;;4.40;99.90;;;;;;2612286;54;19947;-65
2023/01/17 01:50:36;;;;;;;;;;;4.40;99.90;;;;;;2616651;47;19943;-66
2023/01/17 01:53:08;;;;;;;;;;;4.70;99.90;;;;;;2615080;47;19954;-65
2023/01/17 01:55:40;;;;;;;;;;;4.40;99.90;;;;;;2613328;47;19984;-64
2023/01/17 01:58:12;;;;;;;;;;;4.40;99.90;;;;;;2614699;39;20371;-65
2023/01/17 02:00:42;;;;;;;;;;;4.40;99.90;;;;;;2613951;39;20462;-64
2023/01/17 02:03:13;;;;;;;;;;;4.40;99.90;;;;;;2615356;39;20355;-64
2023/01/17 02:05:43;;;;;;;;;;;4.40;99.90;;;;;;2620026;47;19950;-64
2023/01/17 02:08:16;;;;;;;;;;;4.30;99.90;;;;;;2616264;54;19950;-66
2023/01/17 02:10:47;;;;;;;;;;;4.30;99.90;;;;;;2614737;39;20363;-62
2023/01/17 02:13:20;;;;;;;;;;;4.40;99.90;;;;;;2613986;54;19989;-64
2023/01/17 02:15:57;;;;;;;;;;;4.40;99.90;;;;;;2614775;47;20038;-63
2023/01/17 02:18:33;;;;;;;;;;;4.40;99.90;;;;;;2614076;54;20445;-63
2023/01/17 02:21:19;;;;;;;;;;;4.40;99.90;;;;;;2615882;47;20026;-63
2023/01/17 02:24:10;;;;;;;;;;;4.40;99.90;;;;;;2613965;54;19946;-63
2023/01/17 02:26:47;;;;;;;;;;;4.30;99.90;;;;;;2614197;47;19955;-62
2023/01/17 02:29:31;;;;;;;;;;;4.30;99.90;;;;;;2614498;47;19946;-62
2023/01/17 02:32:06;;;;;;;;;;;4.40;99.90;;;;;;2614221;31;20489;-63
2023/01/17 02:34:39;;;;;;;;;;;4.40;99.90;;;;;;2614171;54;19960;-63
2023/01/17 02:37:12;;;;;;;;;;;4.40;99.90;;;;;;2613648;54;19977;-65
2023/01/17 02:39:44;;;;;;;;;;;4.50;99.90;;;;;;2615684;54;19990;-65
2023/01/17 02:42:17;;;;;;;;;;;4.50;99.90;;;;;;2615281;54;19954;-65
2023/01/17 02:44:46;;;;;;;;;;;4.50;99.90;;;;;;2614236;51;19951;-63
2023/01/17 02:47:23;;;;;;;;;;;4.50;99.90;;;;;;2616805;51;19958;-63
2023/01/17 02:49:54;;;;;;;;;;;4.40;99.90;;;;;;2619533;47;19946;-64
2023/01/17 02:52:28;;;;;;;;;;;4.50;99.90;;;;;;2617427;51;19974;-64
2023/01/17 02:55:06;;;;;;;;;;;4.40;99.90;;;;;;2613570;54;19973;-65
2023/01/17 02:57:53;;;;;;;;;;;4.40;99.90;;;;;;2614612;52;19946;-65
2023/01/17 03:00:26;;;;;;;;;;;4.40;99.90;;;;;;2612604;54;19977;-63
2023/01/17 03:03:03;;;;;;;;;;;4.40;99.90;;;;;;2614232;47;20080;-63
2023/01/17 03:05:36;;;;;;;;;;;4.40;99.90;;;;;;2616256;31;20437;-63
2023/01/17 03:08:09;;;;;;;;;;;4.40;99.90;;;;;;2616000;54;20562;-63
2023/01/17 03:10:41;;;;;;;;;;;4.30;99.90;;;;;;2614929;54;20018;-64
2023/01/17 03:13:10;;;;;;;;;;;4.30;99.90;;;;;;2614344;54;19979;-64
2023/01/17 03:15:40;;;;;;;;;;;4.30;99.90;;;;;;2614925;54;19961;-64
2023/01/17 03:18:14;;;;;;;;;;;4.30;99.90;;;;;;2616792;54;19953;-64
2023/01/17 03:20:44;;;;;;;;;;;4.20;99.90;;;;;;2618910;54;19946;-64
2023/01/17 03:23:13;;;;;;;;;;;4.10;99.90;;;;;;2614712;54;19951;-63
2023/01/17 03:25:43;;;;;;;;;;;4.00;99.90;;;;;;2613121;47;19954;-65
2023/01/17 03:28:12;;;;;;;;;;;4.00;99.90;;;;;;2615465;54;19950;-65
2023/01/17 03:30:42;;;;;;;;;;;4.00;99.90;;;;;;2615121;31;20371;-64
2023/01/17 03:33:14;;;;;;;;;;;4.00;99.90;;;;;;2616127;47;20084;-64
2023/01/17 03:35:43;;;;;;;;;;;4.00;99.90;;;;;;2615027;54;19946;-63
2023/01/17 03:38:13;;;;;;;;;;;4.00;99.90;;;;;;2614128;54;19981;-62
2023/01/17 03:40:42;;;;;;;;;;;4.00;99.90;;;;;;2615578;54;19939;-62
2023/01/17 03:43:12;;;;;;;;;;;4.00;99.90;;;;;;2615861;54;19995;-62
2023/01/17 03:45:41;;;;;;;;;;;4.00;99.90;;;;;;2614290;54;19958;-62
2023/01/17 03:48:13;;;;;;;;;;;4.00;99.90;;;;;;2615776;47;19946;-61
2023/01/17 03:50:43;;;;;;;;;;;4.00;99.90;;;;;;2615521;47;19958;-63
2023/01/17 03:53:12;;;;;;;;;;;3.90;99.90;;;;;;2614448;54;19958;-62
2023/01/17 03:55:42;;;;;;;;;;;3.80;99.90;;;;;;2614430;54;20286;-62
2023/01/17 03:58:11;;;;;;;;;;;3.80;99.90;;;;;;2619223;31;20470;-62
2023/01/17 04:00:41;;;;;;;;;;;3.80;99.90;;;;;;2616560;47;19953;-62
2023/01/17 04:03:13;;;;;;;;;;;3.80;99.90;;;;;;2614898;47;19974;-62
2023/01/17 04:05:43;;;;;;;;;;;3.80;99.90;;;;;;2615462;31;20430;-62
2023/01/17 04:08:12;;;;;;;;;;;3.80;99.90;;;;;;2613629;47;19946;-61
2023/01/17 04:10:42;;;;;;;;;;;3.80;99.90;;;;;;2614723;54;19947;-62
2023/01/17 04:13:12;;;;;;;;;;;3.80;99.90;;;;;;2614940;54;19976;-63
2023/01/17 04:15:42;;;;;;;;;;;3.70;99.90;;;;;;2614371;54;19946;-62
2023/01/17 04:18:14;;;;;;;;;;;3.70;99.90;;;;;;2614490;54;19977;-62
2023/01/17 04:20:44;;;;;;;;;;;3.70;99.90;;;;;;2615047;47;20447;-62
2023/01/17 04:23:14;;;;;;;;;;;3.70;99.90;;;;;;2622153;54;19950;-62
2023/01/17 04:25:43;;;;;;;;;;;3.70;99.90;;;;;;2614591;46;19992;-62
2023/01/17 04:28:13;;;;;;;;;;;3.70;99.90;;;;;;2615201;54;19945;-63
2023/01/17 04:30:43;;;;;;;;;;;3.70;99.90;;;;;;2615075;54;19950;-63
2023/01/17 04:33:15;;;;;;;;;;;3.70;99.90;;;;;;2616059;47;19957;-63
2023/01/17 04:35:44;;;;;;;;;;;3.70;99.90;;;;;;2616203;47;19958;-65
2023/01/17 04:38:14;;;;;;;;;;;3.60;99.90;;;;;;2617694;54;19950;-64
2023/01/17 04:40:43;;;;;;;;;;;3.70;99.90;;;;;;2617470;47;19954;-65
2023/01/17 04:43:13;;;;;;;;;;;3.70;99.90;;;;;;2616656;54;21240;-65
2023/01/17 04:45:42;;;;;;;;;;;3.80;99.90;;;;;;2614756;47;20002;-65
2023/01/17 04:48:14;;;;;;;;;;;3.90;99.90;;;;;;2616442;47;20482;-65
2023/01/17 04:50:44;;;;;;;;;;;3.90;99.90;;;;;;2611717;47;19998;-64
2023/01/17 04:53:14;;;;;;;;;;;3.90;99.90;;;;;;2616361;47;19946;-64
2023/01/17 04:55:46;;;;;;;;;;;3.90;99.90;;;;;;2615399;54;19954;-65
2023/01/17 04:58:15;;;;;;;;;;;3.90;99.90;;;;;;2613917;46;19993;-64
2023/01/17 05:00:49;;;;;;;;;;;3.90;99.90;;;;;;2615474;54;20003;-64
2023/01/17 05:03:22;;;;;;;;;;;3.90;99.90;;;;;;2615834;46;19946;-62
2023/01/17 05:05:52;;;;;;;;;;;3.90;99.90;;;;;;2614691;47;19975;-63
2023/01/17 05:08:21;;;;;;;;;;;3.90;99.90;;;;;;2612179;54;20034;-61
2023/01/17 05:10:51;;;;;;;;;;;3.90;99.90;;;;;;2614057;31;21336;-62
2023/01/17 05:13:22;;;;;;;;;;;3.90;99.90;;;;;;2615051;54;20652;-62
2023/01/17 05:15:52;;;;;;;;;;;3.90;99.90;;;;;;2614949;54;19954;-62
2023/01/17 05:18:24;;;;;;;;;;;3.90;99.90;;;;;;2614854;54;19957;-62
2023/01/17 05:20:54;;;;;;;;;;;4.00;99.90;;;;;;2616202;47;19951;-62
2023/01/17 05:23:24;;;;;;;;;;;4.10;99.90;;;;;;2615910;39;20262;-62
2023/01/17 05:25:53;;;;;;;;;;;4.00;99.90;;;;;;2616424;54;19957;-62
2023/01/17 05:28:23;;;;;;;;;;;4.00;99.90;;;;;;2613203;54;20003;-64
2023/01/17 05:30:53;;;;;;;;;;;4.00;99.90;;;;;;2614175;54;20494;-63
2023/01/17 05:33:25;;;;;;;;;;;4.00;99.90;;;;;;2614616;54;19954;-61
2023/01/17 05:35:55;;;;;;;;;;;4.00;99.90;;;;;;2614577;47;19939;-61
2023/01/17 05:38:24;;;;;;;;;;;4.00;99.90;;;;;;2614454;39;21767;-62
2023/01/17 05:40:54;;;;;;;;;;;4.00;99.90;;;;;;2614079;54;19969;-62
2023/01/17 05:43:24;;;;;;;;;;;4.00;99.90;;;;;;2615432;54;19947;-62
2023/01/17 05:45:53;;;;;;;;;;;4.00;99.90;;;;;;2613823;54;19980;-64
2023/01/17 05:48:25;;;;;;;;;;;3.90;99.90;;;;;;2613059;47;19961;-64
2023/01/17 05:50:55;;;;;;;;;;;3.90;99.90;;;;;;2614910;54;19973;-64
2023/01/17 05:53:24;;;;;;;;;;;3.90;99.90;;;;;;2613848;47;19947;-64
2023/01/17 05:55:54;;;;;;;;;;;3.90;99.90;;;;;;2615163;54;19951;-63
2023/01/17 05:58:24;;;;;;;;;;;3.90;99.90;;;;;;2620356;54;19946;-64
2023/01/17 06:00:54;;;;;;;;;;;3.90;99.90;;;;;;2614479;47;19954;-64
2023/01/17 06:03:27;;;;;;;;;;;3.90;99.90;;;;;;2614273;54;20141;-64
2023/01/17 06:05:56;;;;;;;;;;;3.90;99.90;;;;;;2613763;47;19976;-64
2023/01/17 06:08:35;;;;;;;;;;;3.90;99.90;;;;;;2614442;54;19952;-65
2023/01/17 06:11:06;;;;;;;;;;;3.80;99.90;;;;;;2616427;47;20017;-65
2023/01/17 06:13:35;;;;;;;;;;;3.80;99.90;;;;;;2618494;54;19942;-62
2023/01/17 06:16:05;;;;;;;;;;;3.80;99.90;;;;;;2615654;54;19951;-64
2023/01/17 06:18:37;;;;;;;;;;;2.80;99.90;;;;;;2616765;39;20552;-61
2023/01/17 06:21:07;;;;;;;;;;;3.90;99.90;;;;;;2614814;54;19942;-64
2023/01/17 06:23:37;;;;;;;;;;;3.90;99.90;;;;;;2615648;54;20518;-65
2023/01/17 06:26:07;;;;;;;;;;;3.90;99.90;;;;;;2618669;47;19954;-65
2023/01/17 06:28:37;;;;;;;;;;;4.00;99.90;;;;;;2618701;47;19999;-65
2023/01/17 06:31:07;;;;;;;;;;;4.00;99.90;;;;;;2615228;39;20349;-64
2023/01/17 06:33:39;;;;;;;;;;;4.00;99.90;;;;;;2615880;54;19951;-62
2023/01/17 06:36:09;;;;;;;;;;;4.00;99.90;;;;;;2618020;54;19955;-62
2023/01/17 06:38:38;;;;;;;;;;;4.00;99.90;;;;;;2617044;54;19938;-62
2023/01/17 06:41:08;;;;;;;;;;;4.00;99.90;;;;;;2616353;47;19943;-62
2023/01/17 06:43:38;;;;;;;;;;;4.00;99.90;;;;;;2616222;54;19947;-62
2023/01/17 06:46:07;;;;;;;;;;;4.00;99.90;;;;;;2616004;54;19999;-61
2023/01/17 06:48:42;;;;;;;;;;;3.90;99.90;;;;;;2615628;54;19942;-62
2023/01/17 06:51:11;;;;;;;;;;;4.00;99.90;;;;;;2615270;54;20033;-62
2023/01/17 06:53:41;;;;;;;;;;;3.90;99.90;;;;;;2615024;47;19949;-62
2023/01/17 06:56:11;;;;;;;;;;;4.00;99.90;;;;;;2616400;54;20020;-62
2023/01/17 06:58:40;;;;;;;;;;;4.00;99.90;;;;;;2615729;49;19986;-62
2023/01/17 07:01:10;;;;;;;;;;;3.90;99.90;;;;;;2616558;47;19958;-61
2023/01/17 07:03:43;;;;;;;;;;;4.00;99.90;;;;;;2619529;54;19953;-62
2023/01/17 07:06:12;;;;;;;;;;;3.90;99.90;;;;;;2616903;47;19935;-61
2023/01/17 07:08:42;;;;;;;;;;;3.90;99.90;;;;;;2616747;31;20456;-65
2023/01/17 07:11:12;;;;;;;;;;;3.90;99.90;;;;;;2616222;46;20470;-63
2023/01/17 07:13:41;;;;;;;;;;;3.90;99.90;;;;;;2616137;54;19980;-64
2023/01/17 07:16:11;;;;;;;;;;;3.90;99.90;;;;;;2616387;54;20413;-63
2023/01/17 07:18:43;;;;;;;;;;;3.90;99.90;;;;;;2614671;54;19970;-65
2023/01/17 07:21:14;;;;;;;;;;;4.00;99.90;;;;;;2616623;54;19973;-66
2023/01/17 07:23:43;;;;;;;;;;;3.90;99.90;;;;;;2615379;54;20075;-64
2023/01/17 07:26:13;;;;;;;;;;;4.00;99.90;;;;;;2616156;54;19977;-64
2023/01/17 07:28:42;;;;;;;;;;;3.20;99.90;;;;;;2615961;54;20664;-66
2023/01/17 07:31:12;;;;;;;;;;;4.00;99.90;;;;;;2615374;47;19943;-66
2023/01/17 07:33:44;;;;;;;;;;;4.10;99.90;;;;;;2615104;54;19947;-65
2023/01/17 07:36:13;;;;;;;;;;;4.10;99.90;;;;;;2617364;39;20412;-66
2023/01/17 07:38:43;;;;;;;;;;;4.20;99.90;;;;;;2614751;54;19958;-66
2023/01/17 07:41:13;;;;;;;;;;;4.20;99.90;;;;;;2614860;54;20017;-65
2023/01/17 07:43:42;;;;;;;;;;;4.20;99.90;;;;;;2616174;51;20484;-65
2023/01/17 07:46:14;;;;;;;;;;;4.20;99.90;;;;;;2614929;54;19958;-63
2023/01/17 07:48:46;;;;;;;;;;;4.20;99.90;;;;;;2617062;54;19947;-63
2023/01/17 07:51:16;;;;;;;;;;;4.10;99.90;;;;;;2616731;51;20448;-64
2023/01/17 07:53:46;;;;;;;;;;;4.00;99.90;;;;;;2616463;54;19946;-63
2023/01/17 07:56:16;;;;;;;;;;;4.00;99.90;;;;;;2615545;39;20336;-71
2023/01/17 07:58:46;;;;;;;;;;;3.80;99.90;;;;;;2610651;54;20045;-65
2023/01/17 08:01:16;;;;;;;;;;;3.90;99.90;;;;;;2619711;54;19954;-63
2023/01/17 08:03:53;;;;;;;;;;;3.70;99.90;;;;;;2618265;54;19946;-63
2023/01/17 08:06:25;;;;;;;;;;;3.70;99.90;;;;;;2615320;54;20468;-64
2023/01/17 08:08:57;;;;;;;;;;;3.60;99.90;;;;;;2614057;47;20107;-63
2023/01/17 08:11:30;;;;;;;;;;;3.60;99.90;;;;;;2615451;46;19946;-65
2023/01/17 08:14:00;;;;;;;;;;;3.70;99.90;;;;;;2615497;39;20060;-64
2023/01/17 08:16:30;;;;;;;;;;;3.60;99.90;;;;;;2615115;39;20654;-64
2023/01/17 08:19:02;;;;;;;;;;;3.60;99.90;;;;;;2616039;54;20490;-63
2023/01/17 08:21:31;;;;;;;;;;;3.60;99.90;;;;;;2621058;54;19973;-64
2023/01/17 08:24:01;;;;;;;;;;;3.60;99.90;;;;;;2619814;54;19953;-64
2023/01/17 08:26:30;;;;;;;;;;;3.70;99.90;;;;;;2617501;54;19946;-64
2023/01/17 08:29:01;;;;;;;;;;;3.60;99.90;;;;;;2613777;54;19958;-63
2023/01/17 08:31:33;;;;;;;;;;;3.60;99.90;;;;;;2615517;54;19943;-64
2023/01/17 08:34:08;;;;;;;;;;;3.60;99.90;;;;;;2616026;39;20427;-63
2023/01/17 08:36:37;;;;;;;;;;;3.50;99.90;;;;;;2614128;47;19943;-64
2023/01/17 08:39:07;;;;;;;;;;;3.50;99.90;;;;;;2615548;39;20010;-64
2023/01/17 08:41:36;;;;;;;;;;;3.50;99.90;;;;;;2615182;54;19976;-68
2023/01/17 08:44:06;;;;;;;;;;;3.50;99.90;;;;;;2614786;47;19947;-65
2023/01/17 08:46:35;;;;;;;;;;;3.60;99.90;;;;;;2614847;54;19942;-64
2023/01/17 08:49:08;;;;;;;;;;;3.70;99.90;;;;;;2615754;54;19992;-64
2023/01/17 08:51:37;;;;;;;;;;;3.60;99.90;;;;;;2615826;54;19947;-65
2023/01/17 08:54:08;;;;;;;;;;;3.60;99.90;;;;;;2615501;54;19947;-64
2023/01/17 08:56:37;;;;;;;;;;;3.70;99.90;;;;;;2615681;47;19950;-64
2023/01/17 08:59:07;;;;;;;;;;;3.70;99.90;;;;;;2615818;54;19943;-63
2023/01/17 09:01:39;;;;;;;;;;;3.70;99.90;;;;;;2615353;54;19942;-64
2023/01/17 09:04:11;;;;;;;;;;;3.80;99.90;;;;;;2616836;54;20017;-64
2023/01/17 09:06:42;;;;;;;;;;;4.50;99.90;;;;;;2620398;47;20469;-64
2023/01/17 09:09:12;;;;;;;;;;;3.80;99.90;;;;;;2616957;54;19951;-64
2023/01/17 09:11:42;;;;;;;;;;;3.80;99.90;;;;;;2616459;54;19973;-65
2023/01/17 09:14:13;;;;;;;;;;;3.90;99.90;;;;;;2615859;54;19969;-65
2023/01/17 09:16:42;;;;;;;;;;;3.90;99.90;;;;;;2616400;54;19954;-65
2023/01/17 09:19:14;;;;;;;;;;;3.90;99.90;;;;;;2618440;47;20756;-65
2023/01/17 09:21:44;;;;;;;;;;;3.90;99.90;;;;;;2616677;54;19947;-65
2023/01/17 09:24:14;;;;;;;;;;;3.90;99.90;;;;;;2616340;39;20408;-64
2023/01/17 09:26:43;;;;;;;;;;;4.00;99.90;;;;;;2615862;54;19946;-64
2023/01/17 09:29:16;;;;;;;;;;;4.00;99.90;;;;;;2616442;31;20441;-64
2023/01/17 09:31:46;;;;;;;;;;;4.10;99.90;;;;;;2615811;54;20459;-64
2023/01/17 09:34:20;;;;;;;;;;;4.10;99.90;;;;;;2616039;47;19950;-64
2023/01/17 09:36:49;;;;;;;;;;;4.10;99.90;;;;;;2616763;39;20359;-64
2023/01/17 09:39:19;;;;;;;;;;;4.10;99.90;;;;;;2615544;54;20034;-64
2023/01/17 09:41:51;;;;;;;;;;;4.20;99.90;;;;;;2616361;47;19951;-64
2023/01/17 09:44:26;;;;;;;;;;;4.20;99.90;;;;;;2615753;47;19950;-64
2023/01/17 09:46:57;;;;;;;;;;;4.20;99.90;;;;;;2615253;54;19953;-63
2023/01/17 09:49:35;;;;;;;;;;;4.30;99.90;;;;;;2616679;54;20071;-64
2023/01/17 09:52:04;;;;;;;;;;;4.20;99.90;;;;;;2618876;54;19998;-64
2023/01/17 09:54:35;;;;;;;;;;;4.20;99.90;;;;;;2620332;54;20489;-65
2023/01/17 09:57:10;;;;;;;;;;;4.30;99.90;;;;;;2617660;47;20566;-64
2023/01/17 09:59:44;;;;;;;;;;;4.30;99.90;;;;;;2616562;31;20400;-64
2023/01/17 10:02:25;;;;;;;;;;;4.40;99.90;;;;;;2619047;47;20519;-64
2023/01/17 10:05:07;;;;;;;;;;;4.40;99.90;;;;;;2616006;54;19946;-64
2023/01/17 10:07:42;;;;;;;;;;;4.40;99.90;;;;;;2616688;47;19954;-64
2023/01/17 10:10:17;;;;;;;;;;;4.40;99.90;;;;;;2615560;39;20063;-64
2023/01/17 10:12:49;;;;;;;;;;;4.50;99.90;;;;;;2614633;39;20256;-65
2023/01/17 10:15:34;;;;;;;;;;;4.50;99.90;;;;;;2614779;39;20376;-64
2023/01/17 10:18:11;;;;;;;;;;;4.60;99.90;;;;;;2614723;54;19987;-64
2023/01/17 10:21:02;;;;;;;;;;;4.60;99.90;;;;;;2615388;39;20454;-65
2023/01/17 10:23:43;;;;;;;;;;;4.70;99.90;;;;;;2614648;54;19958;-64
2023/01/17 10:26:15;;;;;;;;;;;4.80;99.90;;;;;;2615737;47;19978;-64
2023/01/17 10:28:49;;;;;;;;;;;4.80;99.90;;;;;;2618229;54;19958;-64
2023/01/17 10:31:23;;;;;;;;;;;4.80;99.90;;;;;;2620850;54;19946;-64
2023/01/17 10:33:54;;;;;;;;;;;4.90;99.90;;;;;;2614967;54;19953;-62
2023/01/17 10:36:27;;;;;;;;;;;5.00;99.90;;;;;;2616656;54;20003;-62
2023/01/17 10:38:58;;;;;;;;;;;5.10;99.90;;;;;;2616887;47;19955;-62
2023/01/17 10:41:29;;;;;;;;;;;5.10;99.90;;;;;;2614058;54;20034;-64
2023/01/17 10:44:05;;;;;;;;;;;5.20;99.90;;;;;;2614434;47;19950;-65
2023/01/17 10:46:39;;;;;;;;;;;5.20;99.90;;;;;;2616732;54;19946;-64
2023/01/17 10:49:16;;;;;;;;;;;5.20;99.90;;;;;;2616532;47;19934;-64
2023/01/17 10:51:58;;;;;;;;;;;5.30;99.90;;;;;;2618234;54;19950;-64
2023/01/17 10:54:37;;;;;;;;;;;5.30;99.90;;;;;;2616493;47;20680;-64
2023/01/17 10:57:07;;;;;;;;;;;5.30;99.90;;;;;;2615831;54;19950;-64
2023/01/17 10:59:37;;;;;;;;;;;5.30;99.90;;;;;;2616649;54;19995;-63
2023/01/17 11:02:16;;;;;;;;;;;5.30;99.90;;;;;;2616843;54;19963;-63
2023/01/17 11:04:48;;;;;;;;;;;5.30;99.90;;;;;;2615833;47;19946;-62
2023/01/17 11:07:22;;;;;;;;;;;5.30;99.90;;;;;;2616161;54;19984;-62
2023/01/17 11:09:52;;;;;;;;;;;5.40;99.90;;;;;;2616512;47;19946;-62
2023/01/17 11:12:24;;;;;;;;;;;5.50;99.90;;;;;;2616514;46;19957;-62
2023/01/17 11:14:58;;;;;;;;;;;5.70;99.90;;;;;;2617107;39;20268;-62
2023/01/17 11:17:28;;;;;;;;;;;6.00;99.90;;;;;;2616983;47;19939;-63
2023/01/17 11:20:08;;;;;;;;;;;6.10;99.90;;;;;;2615930;54;19954;-63
2023/01/17 11:22:40;;;;;;;;;;;6.20;99.90;;;;;;2617001;54;19946;-64
2023/01/17 11:25:20;;;;;;;;;;;6.40;99.90;;;;;;2616161;47;19943;-61
2023/01/17 11:27:59;;;;;;;;;;;6.50;99.90;;;;;;2617005;54;19950;-64
2023/01/17 11:30:29;;;;;;;;;;;6.70;99.90;;;;;;2617115;54;19995;-64
2023/01/17 11:32:59;;;;;;;;;;;6.80;99.90;;;;;;2616870;54;20458;-62
2023/01/17 11:35:30;;;;;;;;;;;6.80;99.90;;;;;;2615198;54;20471;-62
2023/01/17 11:38:16;;;;;;;;;;;6.90;99.90;;;;;;2615399;47;19999;-62
2023/01/17 11:40:46;;;;;;;;;;;7.00;99.90;;;;;;2615637;47;19951;-62
2023/01/17 11:43:20;;;;;;;;;;;6.90;99.90;;;;;;2614619;46;19943;-63
2023/01/17 11:46:02;;;;;;;;;;;6.90;99.90;;;;;;2616142;54;20456;-62
2023/01/17 11:48:35;;;;;;;;;;;6.70;99.90;;;;;;2616935;51;20030;-62
2023/01/17 11:51:05;;;;;;;;;;;6.60;99.90;;;;;;2614078;47;19951;-61
2023/01/17 11:53:38;;;;;;;;;;;6.60;99.90;;;;;;2614820;54;19958;-61
2023/01/17 11:56:09;;;;;;;;;;;6.50;99.90;;;;;;2614442;54;19954;-62
2023/01/17 11:58:44;;;;;;;;;;;6.50;99.90;;;;;;2616459;39;20009;-63
2023/01/17 12:01:35;;;;;;;;;;;6.50;99.90;;;;;;2614298;47;19951;-62
2023/01/17 12:04:22;;;;;;;;;;;6.40;99.90;;;;;;2615162;54;19946;-63
2023/01/17 12:07:00;;;;;;;;;;;6.40;99.90;;;;;;2617538;54;19950;-63
2023/01/17 12:09:37;;;;;;;;;;;6.40;99.90;;;;;;2616891;54;20089;-63
2023/01/17 12:15:00;;;;;;;;;;;6.30;99.90;;;;;;2616275;47;19976;-63
2023/01/17 12:17:40;;;;;;;;;;;6.30;99.90;;;;;;2615044;54;19934;-63
2023/01/17 12:20:16;;;;;;;;;;;6.20;99.90;;;;;;2614562;54;19995;-64
2023/01/17 12:23:04;;;;;;;;;;;6.30;99.90;;;;;;2616057;39;20575;-63
2023/01/17 12:25:47;;;;;;;;;;;6.30;99.90;;;;;;2618807;47;19957;-62
2023/01/17 12:28:26;;;;;;;;;;;6.30;99.90;;;;;;2618878;47;19947;-63
2023/01/17 12:31:02;;;;;;;;;;;6.20;99.90;;;;;;2615379;47;19973;-61
2023/01/17 12:33:37;;;;;;;;;;;6.30;99.90;;;;;;2614594;54;20034;-62
2023/01/17 12:36:16;;;;;;;;;;;6.20;99.90;;;;;;2614459;47;19958;-62
2023/01/17 12:38:48;;;;;;;;;;;6.10;99.90;;;;;;2618100;39;20485;-62
2023/01/17 12:41:25;;;;;;;;;;;6.10;99.90;;;;;;2620448;54;19978;-62
2023/01/17 12:43:56;;;;;;;;;;;6.10;99.90;;;;;;2618317;51;20055;-63
2023/01/17 12:46:28;;;;;;;;;;;6.30;99.90;;;;;;2614238;54;20436;-63
2023/01/17 12:49:03;;;;;;;;;;;6.20;99.90;;;;;;2614917;54;20059;-63
2023/01/17 12:51:38;;;;;;;;;;;6.20;99.90;;;;;;2614559;47;19942;-63
2023/01/17 12:54:11;;;;;;;;;;;6.20;99.90;;;;;;2614270;47;20098;-63
2023/01/17 12:56:47;;;;;;;;;;;6.20;99.90;;;;;;2615225;54;19961;-65
2023/01/17 12:59:20;;;;;;;;;;;6.20;99.90;;;;;;2615101;54;19995;-65
2023/01/17 13:01:56;;;;;;;;;;;6.20;99.90;;;;;;2614513;47;19991;-64
2023/01/17 13:04:28;;;;;;;;;;;6.20;99.90;;;;;;2614264;54;20444;-64
2023/01/17 13:07:03;;;;;;;;;;;6.20;99.90;;;;;;2614612;47;19954;-65
2023/01/17 13:09:36;;;;;;;;;;;6.10;99.90;;;;;;2615168;54;19950;-65
2023/01/17 13:12:11;;;;;;;;;;;6.10;99.90;;;;;;2616024;47;19947;-65
2023/01/17 13:14:40;;;;;;;;;;;6.10;99.90;;;;;;2615016;54;19947;-64
2023/01/17 13:17:16;;;;;;;;;;;6.70;99.90;;;;;;2614328;54;19951;-65
2023/01/17 13:19:49;;;;;;;;;;;6.10;99.90;;;;;;2614195;54;19984;-65
2023/01/17 13:22:19;;;;;;;;;;;6.20;99.90;;;;;;2615008;54;20062;-65
2023/01/17 13:24:54;;;;;;;;;;;6.10;99.90;;;;;;2613111;54;19946;-66
2023/01/17 13:27:41;;;;;;;;;;;6.10;99.90;;;;;;2615398;47;19972;-66
2023/01/17 13:30:21;;;;;;;;;;;6.20;99.90;;;;;;2614621;47;20001;-70
2023/01/17 13:33:02;;;;;;;;;;;6.10;99.90;;;;;;2614193;54;19947;-65
2023/01/17 13:35:35;;;;;;;;;;;6.20;99.90;;;;;;2614703;54;20091;-65
2023/01/17 13:38:20;;;;;;;;;;;6.20;99.90;;;;;;2614492;47;19985;-67
2023/01/17 13:40:54;;;;;;;;;;;6.10;99.90;;;;;;2615339;54;19958;-65
2023/01/17 13:43:26;;;;;;;;;;;6.10;99.90;;;;;;2614931;54;20460;-64
2023/01/17 13:45:59;;;;;;;;;;;6.10;99.90;;;;;;2616616;31;20430;-65
2023/01/17 13:48:30;;;;;;;;;;;6.10;99.90;;;;;;2612695;54;19954;-66
2023/01/17 13:51:01;;;;;;;;;;;6.10;99.90;;;;;;2612966;54;20002;-66
2023/01/17 13:53:56;;;;;;;;;;;6.10;99.90;;;;;;2614191;47;19950;-64
2023/01/17 13:56:43;;;;;;;;;;;6.10;99.90;;;;;;2616658;54;19950;-67
2023/01/17 13:59:31;;;;;;;;;;;6.10;99.90;;;;;;2617775;47;20636;-65
2023/01/17 14:02:03;;;;;;;;;;;6.10;99.90;;;;;;2615944;39;20363;-67
2023/01/17 14:05:03;;;;;;;;;;;6.00;99.90;;;;;;2613700;54;20001;-67
2023/01/17 14:07:34;;;;;;;;;;;6.00;99.90;;;;;;2613702;47;19947;-64
2023/01/17 14:10:17;;;;;;;;;;;6.00;99.90;;;;;;2616052;54;19955;-63
2023/01/17 14:12:46;;;;;;;;;;;6.00;99.90;;;;;;2615170;54;19954;-64
2023/01/17 14:15:21;;;;;;;;;;;6.00;99.90;;;;;;2615129;47;20441;-65
2023/01/17 14:17:58;;;;;;;;;;;6.00;99.90;;;;;;2615947;47;19995;-63
2023/01/17 14:20:39;;;;;;;;;;;5.90;99.90;;;;;;2616879;54;20746;-64
2023/01/17 14:23:21;;;;;;;;;;;5.70;99.90;;;;;;2617402;54;20021;-64
2023/01/17 14:25:52;;;;;;;;;;;5.60;99.90;;;;;;2617561;54;19957;-63
2023/01/17 14:28:24;;;;;;;;;;;5.60;99.90;;;;;;2616534;47;19995;-63
2023/01/17 14:30:55;;;;;;;;;;;5.60;99.90;;;;;;2615578;47;19943;-63
2023/01/17 14:33:30;;;;;;;;;;;5.60;99.90;;;;;;2615699;47;19954;-64
2023/01/17 14:36:02;;;;;;;;;;;5.60;99.90;;;;;;2617631;47;20465;-63
2023/01/17 14:38:33;;;;;;;;;;;5.60;99.90;;;;;;2618980;54;19947;-65
2023/01/17 14:41:06;;;;;;;;;;;5.50;99.90;;;;;;2620199;54;19961;-64
2023/01/17 14:43:37;;;;;;;;;;;5.50;99.90;;;;;;2620221;54;19947;-64
2023/01/17 14:46:08;;;;;;;;;;;5.50;99.90;;;;;;2616869;39;20340;-65
2023/01/17 14:48:50;;;;;;;;;;;5.50;99.90;;;;;;2615664;47;19951;-62
2023/01/17 14:51:23;;;;;;;;;;;5.50;99.90;;;;;;2615490;47;19939;-64
2023/01/17 14:53:54;;;;;;;;;;;5.50;99.90;;;;;;2615224;54;19973;-63
2023/01/17 14:56:24;;;;;;;;;;;5.40;99.90;;;;;;2616675;54;19947;-63
2023/01/17 14:59:06;;;;;;;;;;;5.40;99.90;;;;;;2619732;47;20432;-63
2023/01/17 15:01:37;;;;;;;;;;;5.50;99.90;;;;;;2616601;31;20387;-64
2023/01/17 15:04:21;;;;;;;;;;;5.50;99.90;;;;;;2615580;39;20378;-63
2023/01/17 15:06:51;;;;;;;;;;;5.30;99.90;;;;;;2615078;39;20503;-63
2023/01/17 15:09:21;;;;;;;;;;;5.50;99.90;;;;;;2616425;54;19943;-62
2023/01/17 15:11:52;;;;;;;;;;;5.60;99.90;;;;;;2616358;47;19964;-62
2023/01/17 15:14:26;;;;;;;;;;;5.60;99.90;;;;;;2614956;54;19950;-62
2023/01/17 15:16:56;;;;;;;;;;;5.60;99.90;;;;;;2617746;39;20415;-63
2023/01/17 15:19:28;;;;;;;;;;;5.60;99.90;;;;;;2616103;54;19958;-64
2023/01/17 15:22:01;;;;;;;;;;;5.60;99.90;;;;;;2616078;54;19999;-62
2023/01/17 15:24:33;;;;;;;;;;;5.60;99.90;;;;;;2615748;54;20467;-63
2023/01/17 15:27:03;;;;;;;;;;;5.60;99.90;;;;;;2616873;54;20063;-63
2023/01/17 15:29:33;;;;;;;;;;;5.60;99.90;;;;;;2617359;39;20450;-63
2023/01/17 15:32:04;;;;;;;;;;;5.50;99.90;;;;;;2617339;47;19951;-62
2023/01/17 15:34:40;;;;;;;;;;;5.50;99.90;;;;;;2618782;54;19970;-64
2023/01/17 15:37:23;;;;;;;;;;;5.50;99.90;;;;;;2619473;47;19957;-62
2023/01/17 15:42:55;;;;;;;;;;;5.50;99.90;;;;;;2616480;54;19939;-63
2023/01/17 15:45:26;;;;;;;;;;;5.50;99.90;;;;;;2614878;47;19946;-61
2023/01/17 15:48:20;;;;;;;;;;;5.40;99.90;;;;;;2624106;39;20347;-63
2023/01/17 15:50:58;;;;;;;;;;;5.40;99.90;;;;;;2617706;54;20016;-62
2023/01/17 15:53:32;;;;;;;;;;;5.40;99.90;;;;;;2615554;54;19953;-64
2023/01/17 15:56:02;;;;;;;;;;;5.30;99.90;;;;;;2616066;54;19973;-62
2023/01/17 15:58:31;;;;;;;;;;;5.30;99.90;;;;;;2615592;47;19985;-64
2023/01/17 16:01:01;;;;;;;;;;;5.30;99.90;;;;;;2616650;47;20016;-66
2023/01/17 16:03:31;;;;;;;;;;;5.20;99.90;;;;;;2615647;54;19953;-63
2023/01/17 16:06:04;;;;;;;;;;;5.20;99.90;;;;;;2614163;54;19977;-64
2023/01/17 16:08:35;;;;;;;;;;;5.10;99.90;;;;;;2615159;54;20002;-63
2023/01/17 16:11:07;;;;;;;;;;;5.20;99.90;;;;;;2614259;54;19943;-62
2023/01/17 16:13:41;;;;;;;;;;;5.00;99.90;;;;;;2616604;54;19953;-63
2023/01/17 16:16:14;;;;;;;;;;;5.00;99.90;;;;;;2618764;54;19947;-62
2023/01/17 16:18:45;;;;;;;;;;;5.00;99.90;;;;;;2615983;46;19942;-62
2023/01/17 16:21:21;;;;;;;;;;;5.00;99.90;;;;;;2615406;54;19949;-62
2023/01/17 16:23:50;;;;;;;;;;;4.90;99.90;;;;;;2615023;47;20003;-62
2023/01/17 16:26:20;;;;;;;;;;;4.80;99.90;;;;;;2618250;54;19943;-62